Talos — 9HA4371 — position and weather

sailwx.info

Track history (hours):
 
Tides and Currents Weather Stations Pressure Air Temp Water Temp Dewpoint Dewpoint Depression Visibility Wind Speed Wind Dir Waves Ship Positions

Talos

Last reported at 2018-Jan-19 01:58 UTC. Time now 2018-Jan-19 02:03 UTC.
Position N 37°57' E 023°35'.

Length 369 m; draft 11.7 m.

Type: Cargo ship. MMSI: 249769000.

Date/timePositionNaut miles runAvg speedWind from/ knotsBaromVisibWave heightAir tempDewpointWater temp
2018-Jan-19 01:58N 37°57' E 023°35'0 0.0
2018-Jan-19 01:28N 37°57' E 023°35'0 0.0
2018-Jan-19 00:58N 37°57' E 023°35'0 0.0
2018-Jan-19 00:28N 37°57' E 023°35'0 0.0
2018-Jan-18 23:58N 37°57' E 023°35'0 0.0
2018-Jan-18 23:28N 37°57' E 023°35'0 0.0
2018-Jan-18 22:58N 37°57' E 023°35'0 0.0
2018-Jan-18 22:28N 37°57' E 023°35'0 0.0
2018-Jan-18 21:58N 37°57' E 023°35'0 0.0
2018-Jan-18 21:28N 37°57' E 023°35'0 0.0
2018-Jan-18 20:58N 37°57' E 023°35'0 0.0
2018-Jan-18 20:28N 37°57' E 023°35'0 0.0
2018-Jan-18 19:58N 37°57' E 023°35'0 0.0
2018-Jan-18 19:30N 37°57' E 023°35'1 1.9
2018-Jan-18 19:00N 37°56' E 023°35'3 6.0
2018-Jan-18 18:30N 37°54' E 023°36'5 9.6
2018-Jan-18 18:00N 37°50' E 023°40'4 7.6
2018-Jan-18 17:30N 37°46' E 023°42'4 7.3
2018-Jan-18 17:00N 37°43' E 023°44'4 7.4
2018-Jan-18 16:30N 37°39' E 023°46'3 6.9
2018-Jan-18 16:00N 37°36' E 023°47'1 1.4
2018-Jan-18 15:30N 37°37' E 023°48'1 2.4
2018-Jan-18 15:00N 37°38' E 023°48'0 0.3
2018-Jan-18 14:30N 37°38' E 023°48'2 4.2
2018-Jan-18 14:00N 37°36' E 023°49'3 6.5
2018-Jan-18 13:30N 37°34' E 023°51'1 2.6
2018-Jan-18 13:00N 37°34' E 023°53'1 2.7
2018-Jan-18 12:30N 37°35' E 023°51'1 2.6
2018-Jan-18 12:00N 37°35' E 023°50'1 2.5
2018-Jan-18 11:30N 37°36' E 023°49'1 2.3
2018-Jan-18 11:00N 37°37' E 023°48'2 3.6
2018-Jan-18 10:30N 37°35' E 023°49'0 1.0
2018-Jan-18 10:00N 37°36' E 023°48'1 2.1
2018-Jan-18 09:30N 37°36' E 023°47'1 1.9
2018-Jan-18 09:00N 37°36' E 023°46'1 2.0
2018-Jan-18 08:29N 37°37' E 023°45'1 2.1
2018-Jan-18 08:00N 37°38' E 023°44'1 1.6
2018-Jan-18 07:30N 37°38' E 023°43'1 1.6
2018-Jan-18 07:00N 37°39' E 023°42'1 2.4
2018-Jan-18 06:30N 37°39' E 023°41'1 2.9
2018-Jan-18 06:00N 37°41' E 023°41'1 2.9
2018-Jan-18 05:30N 37°42' E 023°39'1 2.4
2018-Jan-18 05:00N 37°43' E 023°39'613.0
2018-Jan-18 04:31N 37°49' E 023°37'2 4.7
2018-Jan-18 04:01N 37°50' E 023°39'3 6.5
2018-Jan-18 03:31N 37°47' E 023°41'4 8.0
2018-Jan-18 03:01N 37°44' E 023°44'815.9
2018-Jan-18 02:30N 37°36' E 023°45'1018.9
2018-Jan-18 02:00N 37°27' E 023°42'919.0
2018-Jan-18 01:31N 37°17' E 023°40'917.9
2018-Jan-18 01:00N 37°08' E 023°38'1919.4
2018-Jan-18 00:00N 36°50' E 023°31'120.1
2018-Jan-17 23:57N 36°49' E 023°31'  
2018-Jan-12 14:24N 49°25' W 004°31'1018.2
2018-Jan-12 13:51N 49°30' W 004°18'618.2
2018-Jan-12 13:30N 49°33' W 004°09'1018.3
2018-Jan-12 12:56N 49°38' W 003°55'818.6
2018-Jan-12 12:30N 49°42' W 003°44'918.8
2018-Jan-12 12:00N 49°47' W 003°32'1019.4
2018-Jan-12 11:30N 49°52' W 003°19'1019.8
2018-Jan-12 11:00N 49°57' W 003°05'1020.4
2018-Jan-12 10:30N 50°01' W 002°51'1121.1
2018-Jan-12 10:00N 50°04' W 002°36'1121.2
2018-Jan-12 09:29N 50°07' W 002°19'1121.1
2018-Jan-12 08:58N 50°10' W 002°03'1120.8
2018-Jan-12 08:25N 50°13' W 001°46'820.4
2018-Jan-12 08:01N 50°16' W 001°33'1019.9
2018-Jan-12 07:30N 50°20' W 001°19'1019.6
2018-Jan-12 07:00N 50°27' W 001°08'918.8
2018-Jan-12 06:30N 50°34' W 000°59'612.2
2018-Jan-12 06:00N 50°40' W 000°57'714.2
2018-Jan-12 05:30N 50°45' W 001°05'917.3
2018-Jan-12 05:01N 50°47' W 001°19'5 9.0
2018-Jan-12 04:30N 50°51' W 001°21'5 9.1
2018-Jan-12 04:01N 50°54' W 001°26'1 2.1
2018-Jan-12 03:30N 50°54' W 001°28'0 0.1
2018-Jan-12 02:58N 50°54' W 001°28'0 0.0
2018-Jan-12 02:22N 50°54' W 001°28'0 0.0
2018-Jan-12 01:58N 50°54' W 001°28'0 0.0
2018-Jan-12 01:28N 50°54' W 001°28'0 0.0
2018-Jan-12 00:40N 50°54' W 001°28'0 0.0
2018-Jan-12 00:28N 50°54' W 001°28'0 0.0
2018-Jan-11 22:16N 50°54' W 001°28'0 0.0
2018-Jan-11 21:58N 50°54' W 001°28'0 0.0
2018-Jan-11 21:28N 50°54' W 001°28'0 0.0
2018-Jan-11 20:58N 50°54' W 001°28'0 0.0
2018-Jan-11 20:28N 50°54' W 001°28'0 0.0
2018-Jan-11 19:58N 50°54' W 001°28'0 0.0
2018-Jan-11 18:22N 50°54' W 001°28'0 0.0
2018-Jan-11 15:22N 50°54' W 001°28'0 0.0
2018-Jan-11 14:43N 50°54' W 001°28'0 0.0
2018-Jan-11 14:28N 50°54' W 001°28'0 0.0
2018-Jan-11 13:28N 50°54' W 001°28'0 0.0
2018-Jan-11 10:16N 50°54' W 001°28'0 0.0
2018-Jan-11 09:10N 50°54' W 001°28'0 0.0
2018-Jan-11 08:34N 50°54' W 001°28'0 0.0
2018-Jan-11 08:28N 50°54' W 001°28'0 0.0
2018-Jan-11 07:52N 50°54' W 001°28'0 0.0
2018-Jan-11 07:28N 50°54' W 001°28'0 0.0
2018-Jan-11 06:58N 50°54' W 001°28'0 0.0
2018-Jan-11 06:28N 50°54' W 001°28'0 0.0
2018-Jan-11 05:58N 50°54' W 001°28'0 0.0
2018-Jan-11 05:28N 50°54' W 001°28'0 0.0
2018-Jan-11 04:40N 50°54' W 001°28'0 0.0
2018-Jan-11 04:28N 50°54' W 001°28'0 0.0
2018-Jan-11 03:58N 50°54' W 001°28'0 0.0
2018-Jan-11 03:28N 50°54' W 001°28'0 0.0
2018-Jan-11 02:58N 50°54' W 001°28'0 0.0
2018-Jan-11 02:28N 50°54' W 001°28'0 0.0
2018-Jan-11 01:52N 50°54' W 001°28'0 0.0
2018-Jan-11 01:16N 50°54' W 001°28'0 0.0
2018-Jan-11 00:58N 50°54' W 001°28'1 1.3
2018-Jan-11 00:30N 50°54' W 001°27'3 5.9
2018-Jan-11 00:00N 50°52' W 001°23'510.1
2018-Jan-10 23:30N 50°49' W 001°18'4 7.6
2018-Jan-10 23:00N 50°46' W 001°14'817.0
2018-Jan-10 22:31N 50°43' W 001°01'612.3
2018-Jan-10 22:01N 50°38' W 000°57'4 8.6
2018-Jan-10 21:30N 50°35' W 000°52'5 9.4
2018-Jan-10 21:01N 50°32' W 000°46'611.2
2018-Jan-10 20:30N 50°31' W 000°37'611.1
2018-Jan-10 20:01N 50°31' W 000°28'510.9
2018-Jan-10 19:30N 50°31' W 000°20'611.3
2018-Jan-10 19:01N 50°31' W 000°11'713.0
2018-Jan-10 18:30N 50°32' W 000°01'611.7
2018-Jan-10 18:00N 50°33' E 000°08'612.1
2018-Jan-10 17:30N 50°34' E 000°18'612.1
2018-Jan-10 17:00N 50°36' E 000°27'611.8
2018-Jan-10 16:30N 50°37' E 000°36'611.7
2018-Jan-10 16:00N 50°40' E 000°44'611.7
2018-Jan-10 15:30N 50°44' E 000°51'611.9
2018-Jan-10 15:00N 50°48' E 000°58'612.4
2018-Jan-10 14:30N 50°52' E 001°06'713.0
2018-Jan-10 14:00N 50°56' E 001°13'713.7
2018-Jan-10 13:30N 51°01' E 001°21'713.6
2018-Jan-10 13:00N 51°05' E 001°30'713.2
2018-Jan-10 12:31N 51°09' E 001°38'713.0
2018-Jan-10 12:01N 51°14' E 001°45'612.5
2018-Jan-10 11:31N 51°20' E 001°49'612.0
2018-Jan-10 11:01N 51°25' E 001°53'611.8
2018-Jan-10 10:30N 51°31' E 001°51'611.8
2018-Jan-10 10:01N 51°36' E 001°47'511.0
2018-Jan-10 09:31N 51°42' E 001°46'611.1
2018-Jan-10 09:01N 51°47' E 001°45'611.3
2018-Jan-10 08:30N 51°52' E 001°39'4 8.9
2018-Jan-10 08:00N 51°54' E 001°34'714.9
2018-Jan-10 07:30N 51°56' E 001°22'4 7.1
2018-Jan-10 07:00N 51°58' E 001°17'0 0.2
2018-Jan-10 06:28N 51°58' E 001°17'0 0.0
2018-Jan-10 05:58N 51°58' E 001°17'0 0.0
2018-Jan-10 05:28N 51°58' E 001°17'0 0.0
2018-Jan-10 04:58N 51°58' E 001°17'0 0.0
2018-Jan-10 04:28N 51°58' E 001°17'0 0.0
2018-Jan-10 03:58N 51°58' E 001°17'0 0.0
2018-Jan-10 03:28N 51°58' E 001°17'0 0.0
2018-Jan-10 02:58N 51°58' E 001°17'0 0.0
2018-Jan-10 02:28N 51°58' E 001°17'0 0.0
2018-Jan-10 01:58N 51°58' E 001°17'0 0.0
2018-Jan-10 01:28N 51°58' E 001°17'0 0.0
2018-Jan-10 00:58N 51°58' E 001°17'0 0.0
2018-Jan-10 00:28N 51°58' E 001°17'0 0.0
2018-Jan-09 23:58N 51°58' E 001°17'0 0.0
2018-Jan-09 23:28N 51°58' E 001°17'0 0.0
2018-Jan-09 22:58N 51°58' E 001°17'0 0.0
2018-Jan-09 22:28N 51°58' E 001°17'0 0.0
2018-Jan-09 21:58N 51°58' E 001°17'0 0.0
2018-Jan-09 21:28N 51°58' E 001°17'0 0.0
2018-Jan-09 20:58N 51°58' E 001°17'0 0.0
2018-Jan-09 20:28N 51°58' E 001°17'0 0.0
2018-Jan-09 19:58N 51°58' E 001°17'0 0.0
2018-Jan-09 19:28N 51°58' E 001°17'0 0.0
2018-Jan-09 18:58N 51°58' E 001°17'0 0.0
2018-Jan-09 18:28N 51°58' E 001°17'0 0.0
2018-Jan-09 17:58N 51°58' E 001°17'0 0.0
2018-Jan-09 17:28N 51°58' E 001°17'0 0.0
2018-Jan-09 16:58N 51°58' E 001°17'0 0.0
2018-Jan-09 16:28N 51°58' E 001°17'0 0.0
2018-Jan-09 15:58N 51°58' E 001°17'0 0.0
2018-Jan-09 15:28N 51°58' E 001°17'0 0.0
2018-Jan-09 14:58N 51°58' E 001°17'0 0.0
2018-Jan-09 14:28N 51°58' E 001°17'0 0.0
2018-Jan-09 13:58N 51°58' E 001°17'0 0.0
2018-Jan-09 13:28N 51°58' E 001°17'0 0.0
2018-Jan-09 12:58N 51°58' E 001°17'0 0.0
2018-Jan-09 12:28N 51°58' E 001°17'0 0.0
2018-Jan-09 11:58N 51°58' E 001°17'0 0.0
2018-Jan-09 11:28N 51°58' E 001°17'0 0.0
2018-Jan-09 10:58N 51°58' E 001°17'0 0.3
2018-Jan-09 10:31N 51°58' E 001°17'1 2.1
2018-Jan-09 10:01N 51°57' E 001°18'510.6
2018-Jan-09 09:31N 51°56' E 001°27'713.1
2018-Jan-09 09:01N 51°52' E 001°35'510.0
2018-Jan-09 08:30N 51°53' E 001°43'1 1.7
2018-Jan-09 08:00N 51°54' E 001°43'1 1.9
2018-Jan-09 07:28N 51°55' E 001°42'0 0.1
2018-Jan-09 06:58N 51°55' E 001°42'0 0.1
2018-Jan-09 06:28N 51°55' E 001°42'0 0.2
2018-Jan-09 05:58N 51°55' E 001°42'0 0.2
2018-Jan-09 05:28N 51°55' E 001°42'0 0.0
2018-Jan-09 04:58N 51°55' E 001°42'0 0.1
2018-Jan-09 04:28N 51°55' E 001°42'0 0.0
2018-Jan-09 03:58N 51°55' E 001°42'0 0.0
2018-Jan-09 03:28N 51°55' E 001°42'0 0.0
2018-Jan-09 02:58N 51°55' E 001°42'0 0.0
2018-Jan-09 02:28N 51°55' E 001°42'  
Track history (hours):
 
Tides and Currents Weather Stations Pressure Air Temp Water Temp Dewpoint Dewpoint Depression Visibility Wind Speed Wind Dir Waves Ship Positions

Talos

Last reported at 2018-Jan-19 01:58 UTC. Time now 2018-Jan-19 02:03 UTC.
Position N 37°57' E 023°35'.

Length 369 m; draft 11.7 m.

Type: Cargo ship. MMSI: 249769000.

Date/timePositionNaut miles runAvg speedWind from/ knotsBaromVisibWave heightAir tempDewpointWater temp
2018-Jan-19 01:58N 37°57' E 023°35'0 0.0
2018-Jan-19 01:28N 37°57' E 023°35'0 0.0
2018-Jan-19 00:58N 37°57' E 023°35'0 0.0
2018-Jan-19 00:28N 37°57' E 023°35'0 0.0
2018-Jan-18 23:58N 37°57' E 023°35'0 0.0
2018-Jan-18 23:28N 37°57' E 023°35'0 0.0
2018-Jan-18 22:58N 37°57' E 023°35'0 0.0
2018-Jan-18 22:28N 37°57' E 023°35'0 0.0
2018-Jan-18 21:58N 37°57' E 023°35'0 0.0
2018-Jan-18 21:28N 37°57' E 023°35'0 0.0
2018-Jan-18 20:58N 37°57' E 023°35'0 0.0
2018-Jan-18 20:28N 37°57' E 023°35'0 0.0
2018-Jan-18 19:58N 37°57' E 023°35'0 0.0
2018-Jan-18 19:30N 37°57' E 023°35'1 1.9
2018-Jan-18 19:00N 37°56' E 023°35'3 6.0
2018-Jan-18 18:30N 37°54' E 023°36'5 9.6
2018-Jan-18 18:00N 37°50' E 023°40'4 7.6
2018-Jan-18 17:30N 37°46' E 023°42'4 7.3
2018-Jan-18 17:00N 37°43' E 023°44'4 7.4
2018-Jan-18 16:30N 37°39' E 023°46'3 6.9
2018-Jan-18 16:00N 37°36' E 023°47'1 1.4
2018-Jan-18 15:30N 37°37' E 023°48'1 2.4
2018-Jan-18 15:00N 37°38' E 023°48'0 0.3
2018-Jan-18 14:30N 37°38' E 023°48'2 4.2
2018-Jan-18 14:00N 37°36' E 023°49'3 6.5
2018-Jan-18 13:30N 37°34' E 023°51'1 2.6
2018-Jan-18 13:00N 37°34' E 023°53'1 2.7
2018-Jan-18 12:30N 37°35' E 023°51'1 2.6
2018-Jan-18 12:00N 37°35' E 023°50'1 2.5
2018-Jan-18 11:30N 37°36' E 023°49'1 2.3
2018-Jan-18 11:00N 37°37' E 023°48'2 3.6
2018-Jan-18 10:30N 37°35' E 023°49'0 1.0
2018-Jan-18 10:00N 37°36' E 023°48'1 2.1
2018-Jan-18 09:30N 37°36' E 023°47'1 1.9
2018-Jan-18 09:00N 37°36' E 023°46'1 2.0
2018-Jan-18 08:29N 37°37' E 023°45'1 2.1
2018-Jan-18 08:00N 37°38' E 023°44'1 1.6
2018-Jan-18 07:30N 37°38' E 023°43'1 1.6
2018-Jan-18 07:00N 37°39' E 023°42'1 2.4
2018-Jan-18 06:30N 37°39' E 023°41'1 2.9
2018-Jan-18 06:00N 37°41' E 023°41'1 2.9
2018-Jan-18 05:30N 37°42' E 023°39'1 2.4
2018-Jan-18 05:00N 37°43' E 023°39'613.0
2018-Jan-18 04:31N 37°49' E 023°37'2 4.7
2018-Jan-18 04:01N 37°50' E 023°39'3 6.5
2018-Jan-18 03:31N 37°47' E 023°41'4 8.0
2018-Jan-18 03:01N 37°44' E 023°44'815.9
2018-Jan-18 02:30N 37°36' E 023°45'1018.9
2018-Jan-18 02:00N 37°27' E 023°42'919.0
2018-Jan-18 01:31N 37°17' E 023°40'917.9
2018-Jan-18 01:00N 37°08' E 023°38'1919.4
2018-Jan-18 00:00N 36°50' E 023°31'120.1
2018-Jan-17 23:57N 36°49' E 023°31'  
2018-Jan-12 14:24N 49°25' W 004°31'1018.2
2018-Jan-12 13:51N 49°30' W 004°18'618.2
2018-Jan-12 13:30N 49°33' W 004°09'1018.3
2018-Jan-12 12:56N 49°38' W 003°55'818.6
2018-Jan-12 12:30N 49°42' W 003°44'918.8
2018-Jan-12 12:00N 49°47' W 003°32'1019.4
2018-Jan-12 11:30N 49°52' W 003°19'1019.8
2018-Jan-12 11:00N 49°57' W 003°05'1020.4
2018-Jan-12 10:30N 50°01' W 002°51'1121.1
2018-Jan-12 10:00N 50°04' W 002°36'1121.2
2018-Jan-12 09:29N 50°07' W 002°19'1121.1
2018-Jan-12 08:58N 50°10' W 002°03'1120.8
2018-Jan-12 08:25N 50°13' W 001°46'820.4
2018-Jan-12 08:01N 50°16' W 001°33'1019.9
2018-Jan-12 07:30N 50°20' W 001°19'1019.6
2018-Jan-12 07:00N 50°27' W 001°08'918.8
2018-Jan-12 06:30N 50°34' W 000°59'612.2
2018-Jan-12 06:00N 50°40' W 000°57'714.2
2018-Jan-12 05:30N 50°45' W 001°05'917.3
2018-Jan-12 05:01N 50°47' W 001°19'5 9.0
2018-Jan-12 04:30N 50°51' W 001°21'5 9.1
2018-Jan-12 04:01N 50°54' W 001°26'1 2.1
2018-Jan-12 03:30N 50°54' W 001°28'0 0.1
2018-Jan-12 02:58N 50°54' W 001°28'0 0.0
2018-Jan-12 02:22N 50°54' W 001°28'0 0.0
2018-Jan-12 01:58N 50°54' W 001°28'0 0.0
2018-Jan-12 01:28N 50°54' W 001°28'0 0.0
2018-Jan-12 00:40N 50°54' W 001°28'0 0.0
2018-Jan-12 00:28N 50°54' W 001°28'0 0.0
2018-Jan-11 22:16N 50°54' W 001°28'0 0.0
2018-Jan-11 21:58N 50°54' W 001°28'0 0.0
2018-Jan-11 21:28N 50°54' W 001°28'0 0.0
2018-Jan-11 20:58N 50°54' W 001°28'0 0.0
2018-Jan-11 20:28N 50°54' W 001°28'0 0.0
2018-Jan-11 19:58N 50°54' W 001°28'0 0.0
2018-Jan-11 18:22N 50°54' W 001°28'0 0.0
2018-Jan-11 15:22N 50°54' W 001°28'0 0.0
2018-Jan-11 14:43N 50°54' W 001°28'0 0.0
2018-Jan-11 14:28N 50°54' W 001°28'0 0.0
2018-Jan-11 13:28N 50°54' W 001°28'0 0.0
2018-Jan-11 10:16N 50°54' W 001°28'0 0.0
2018-Jan-11 09:10N 50°54' W 001°28'0 0.0
2018-Jan-11 08:34N 50°54' W 001°28'0 0.0
2018-Jan-11 08:28N 50°54' W 001°28'0 0.0
2018-Jan-11 07:52N 50°54' W 001°28'0 0.0
2018-Jan-11 07:28N 50°54' W 001°28'0 0.0
2018-Jan-11 06:58N 50°54' W 001°28'0 0.0
2018-Jan-11 06:28N 50°54' W 001°28'0 0.0
2018-Jan-11 05:58N 50°54' W 001°28'0 0.0
2018-Jan-11 05:28N 50°54' W 001°28'0 0.0
2018-Jan-11 04:40N 50°54' W 001°28'0 0.0
2018-Jan-11 04:28N 50°54' W 001°28'0 0.0
2018-Jan-11 03:58N 50°54' W 001°28'0 0.0
2018-Jan-11 03:28N 50°54' W 001°28'0 0.0
2018-Jan-11 02:58N 50°54' W 001°28'0 0.0
2018-Jan-11 02:28N 50°54' W 001°28'0 0.0
2018-Jan-11 01:52N 50°54' W 001°28'0 0.0
2018-Jan-11 01:16N 50°54' W 001°28'0 0.0
2018-Jan-11 00:58N 50°54' W 001°28'1 1.3
2018-Jan-11 00:30N 50°54' W 001°27'3 5.9
2018-Jan-11 00:00N 50°52' W 001°23'510.1
2018-Jan-10 23:30N 50°49' W 001°18'4 7.6
2018-Jan-10 23:00N 50°46' W 001°14'817.0
2018-Jan-10 22:31N 50°43' W 001°01'612.3
2018-Jan-10 22:01N 50°38' W 000°57'4 8.6
2018-Jan-10 21:30N 50°35' W 000°52'5 9.4
2018-Jan-10 21:01N 50°32' W 000°46'611.2
2018-Jan-10 20:30N 50°31' W 000°37'611.1
2018-Jan-10 20:01N 50°31' W 000°28'510.9
2018-Jan-10 19:30N 50°31' W 000°20'611.3
2018-Jan-10 19:01N 50°31' W 000°11'713.0
2018-Jan-10 18:30N 50°32' W 000°01'611.7
2018-Jan-10 18:00N 50°33' E 000°08'612.1
2018-Jan-10 17:30N 50°34' E 000°18'612.1
2018-Jan-10 17:00N 50°36' E 000°27'611.8
2018-Jan-10 16:30N 50°37' E 000°36'611.7
2018-Jan-10 16:00N 50°40' E 000°44'611.7
2018-Jan-10 15:30N 50°44' E 000°51'611.9
2018-Jan-10 15:00N 50°48' E 000°58'612.4
2018-Jan-10 14:30N 50°52' E 001°06'713.0
2018-Jan-10 14:00N 50°56' E 001°13'713.7
2018-Jan-10 13:30N 51°01' E 001°21'713.6
2018-Jan-10 13:00N 51°05' E 001°30'713.2
2018-Jan-10 12:31N 51°09' E 001°38'713.0
2018-Jan-10 12:01N 51°14' E 001°45'612.5
2018-Jan-10 11:31N 51°20' E 001°49'612.0
2018-Jan-10 11:01N 51°25' E 001°53'611.8
2018-Jan-10 10:30N 51°31' E 001°51'611.8
2018-Jan-10 10:01N 51°36' E 001°47'511.0
2018-Jan-10 09:31N 51°42' E 001°46'611.1
2018-Jan-10 09:01N 51°47' E 001°45'611.3
2018-Jan-10 08:30N 51°52' E 001°39'4 8.9
2018-Jan-10 08:00N 51°54' E 001°34'714.9
2018-Jan-10 07:30N 51°56' E 001°22'4 7.1
2018-Jan-10 07:00N 51°58' E 001°17'0 0.2
2018-Jan-10 06:28N 51°58' E 001°17'0 0.0
2018-Jan-10 05:58N 51°58' E 001°17'0 0.0
2018-Jan-10 05:28N 51°58' E 001°17'0 0.0
2018-Jan-10 04:58N 51°58' E 001°17'0 0.0
2018-Jan-10 04:28N 51°58' E 001°17'0 0.0
2018-Jan-10 03:58N 51°58' E 001°17'0 0.0
2018-Jan-10 03:28N 51°58' E 001°17'0 0.0
2018-Jan-10 02:58N 51°58' E 001°17'0 0.0
2018-Jan-10 02:28N 51°58' E 001°17'0 0.0
2018-Jan-10 01:58N 51°58' E 001°17'0 0.0
2018-Jan-10 01:28N 51°58' E 001°17'0 0.0
2018-Jan-10 00:58N 51°58' E 001°17'0 0.0
2018-Jan-10 00:28N 51°58' E 001°17'0 0.0
2018-Jan-09 23:58N 51°58' E 001°17'0 0.0
2018-Jan-09 23:28N 51°58' E 001°17'0 0.0
2018-Jan-09 22:58N 51°58' E 001°17'0 0.0
2018-Jan-09 22:28N 51°58' E 001°17'0 0.0
2018-Jan-09 21:58N 51°58' E 001°17'0 0.0
2018-Jan-09 21:28N 51°58' E 001°17'0 0.0
2018-Jan-09 20:58N 51°58' E 001°17'0 0.0
2018-Jan-09 20:28N 51°58' E 001°17'0 0.0
2018-Jan-09 19:58N 51°58' E 001°17'0 0.0
2018-Jan-09 19:28N 51°58' E 001°17'0 0.0
2018-Jan-09 18:58N 51°58' E 001°17'0 0.0
2018-Jan-09 18:28N 51°58' E 001°17'0 0.0
2018-Jan-09 17:58N 51°58' E 001°17'0 0.0
2018-Jan-09 17:28N 51°58' E 001°17'0 0.0
2018-Jan-09 16:58N 51°58' E 001°17'0 0.0
2018-Jan-09 16:28N 51°58' E 001°17'0 0.0
2018-Jan-09 15:58N 51°58' E 001°17'0 0.0
2018-Jan-09 15:28N 51°58' E 001°17'0 0.0
2018-Jan-09 14:58N 51°58' E 001°17'0 0.0
2018-Jan-09 14:28N 51°58' E 001°17'0 0.0
2018-Jan-09 13:58N 51°58' E 001°17'0 0.0
2018-Jan-09 13:28N 51°58' E 001°17'0 0.0
2018-Jan-09 12:58N 51°58' E 001°17'0 0.0
2018-Jan-09 12:28N 51°58' E 001°17'0 0.0
2018-Jan-09 11:58N 51°58' E 001°17'0 0.0
2018-Jan-09 11:28N 51°58' E 001°17'0 0.0
2018-Jan-09 10:58N 51°58' E 001°17'0 0.3
2018-Jan-09 10:31N 51°58' E 001°17'1 2.1
2018-Jan-09 10:01N 51°57' E 001°18'510.6
2018-Jan-09 09:31N 51°56' E 001°27'713.1
2018-Jan-09 09:01N 51°52' E 001°35'510.0
2018-Jan-09 08:30N 51°53' E 001°43'1 1.7
2018-Jan-09 08:00N 51°54' E 001°43'1 1.9
2018-Jan-09 07:28N 51°55' E 001°42'0 0.1
2018-Jan-09 06:58N 51°55' E 001°42'0 0.1
2018-Jan-09 06:28N 51°55' E 001°42'0 0.2
2018-Jan-09 05:58N 51°55' E 001°42'0 0.2
2018-Jan-09 05:28N 51°55' E 001°42'0 0.0
2018-Jan-09 04:58N 51°55' E 001°42'0 0.1
2018-Jan-09 04:28N 51°55' E 001°42'0 0.0
2018-Jan-09 03:58N 51°55' E 001°42'0 0.0
2018-Jan-09 03:28N 51°55' E 001°42'0 0.0
2018-Jan-09 02:58N 51°55' E 001°42'0 0.0
2018-Jan-09 02:28N 51°55' E 001°42'  

Dump ship's entire track history